sensor_id;sensor_type;location;lat;lon;timestamp;temperature;humidity
2453;DHT22;63678;47.994;7.854;2023-05-07T00:01:50;16.60;99.90
2453;DHT22;63678;47.994;7.854;2023-05-07T00:04:22;16.80;99.90
2453;DHT22;63678;47.994;7.854;2023-05-07T00:06:54;16.30;99.90
2453;DHT22;63678;47.994;7.854;2023-05-07T00:12:00;16.80;99.90
2453;DHT22;63678;47.994;7.854;2023-05-07T00:14:32;16.50;99.90
2453;DHT22;63678;47.994;7.854;2023-05-07T00:17:04;16.50;99.90
2453;DHT22;63678;47.994;7.854;2023-05-07T00:19:36;16.90;99.90
2453;DHT22;63678;47.994;7.854;2023-05-07T00:22:09;16.70;99.90
2453;DHT22;63678;47.994;7.854;2023-05-07T00:24:41;16.30;99.90
2453;DHT22;63678;47.994;7.854;2023-05-07T00:27:14;16.40;99.90
2453;DHT22;63678;47.994;7.854;2023-05-07T00:32:19;16.20;99.90
2453;DHT22;63678;47.994;7.854;2023-05-07T00:34:51;16.10;99.90
2453;DHT22;63678;47.994;7.854;2023-05-07T00:37:23;15.80;99.90
2453;DHT22;63678;47.994;7.854;2023-05-07T00:39:55;16.20;99.90
2453;DHT22;63678;47.994;7.854;2023-05-07T00:42:27;15.80;99.90
2453;DHT22;63678;47.994;7.854;2023-05-07T00:47:33;16.40;99.90
2453;DHT22;63678;47.994;7.854;2023-05-07T00:50:06;15.50;99.90
2453;DHT22;63678;47.994;7.854;2023-05-07T00:52:39;15.60;99.90
2453;DHT22;63678;47.994;7.854;2023-05-07T00:55:11;15.20;99.90
2453;DHT22;63678;47.994;7.854;2023-05-07T00:57:46;15.10;99.90
2453;DHT22;63678;47.994;7.854;2023-05-07T01:00:18;15.30;99.90
2453;DHT22;63678;47.994;7.854;2023-05-07T01:02:51;15.80;99.90
2453;DHT22;63678;47.994;7.854;2023-05-07T01:05:24;15.60;99.90
2453;DHT22;63678;47.994;7.854;2023-05-07T01:07:59;15.80;99.90
2453;DHT22;63678;47.994;7.854;2023-05-07T01:10:31;14.80;99.90
2453;DHT22;63678;47.994;7.854;2023-05-07T01:13:05;15.10;99.90
2453;DHT22;63678;47.994;7.854;2023-05-07T01:15:37;15.20;99.90
2453;DHT22;63678;47.994;7.854;2023-05-07T01:18:10;15.40;99.90
2453;DHT22;63678;47.994;7.854;2023-05-07T01:20:42;15.60;99.90
2453;DHT22;63678;47.994;7.854;2023-05-07T01:23:15;16.10;99.90
2453;DHT22;63678;47.994;7.854;2023-05-07T01:25:54;15.80;99.90
2453;DHT22;63678;47.994;7.854;2023-05-07T01:28:30;15.50;99.90
2453;DHT22;63678;47.994;7.854;2023-05-07T01:31:04;16.00;99.90
2453;DHT22;63678;47.994;7.854;2023-05-07T01:33:40;15.70;99.90
2453;DHT22;63678;47.994;7.854;2023-05-07T01:36:13;15.80;99.90
2453;DHT22;63678;47.994;7.854;2023-05-07T01:41:19;15.20;99.90
2453;DHT22;63678;47.994;7.854;2023-05-07T01:43:52;15.60;99.90
2453;DHT22;63678;47.994;7.854;2023-05-07T01:46:26;15.60;99.90
2453;DHT22;63678;47.994;7.854;2023-05-07T01:48:59;15.70;99.90
2453;DHT22;63678;47.994;7.854;2023-05-07T01:51:32;15.60;99.90
2453;DHT22;63678;47.994;7.854;2023-05-07T01:54:05;15.70;99.90
2453;DHT22;63678;47.994;7.854;2023-05-07T01:56:38;15.20;99.90
2453;DHT22;63678;47.994;7.854;2023-05-07T01:59:10;15.40;99.90
2453;DHT22;63678;47.994;7.854;2023-05-07T02:04:16;15.80;99.90
2453;DHT22;63678;47.994;7.854;2023-05-07T02:06:49;16.50;99.90
2453;DHT22;63678;47.994;7.854;2023-05-07T02:09:21;16.20;99.90
2453;DHT22;63678;47.994;7.854;2023-05-07T02:11:55;16.20;99.90
2453;DHT22;63678;47.994;7.854;2023-05-07T02:14:28;16.10;99.90
2453;DHT22;63678;47.994;7.854;2023-05-07T02:17:00;16.30;99.90
2453;DHT22;63678;47.994;7.854;2023-05-07T02:19:33;15.80;99.90
2453;DHT22;63678;47.994;7.854;2023-05-07T02:22:05;15.90;99.90
2453;DHT22;63678;47.994;7.854;2023-05-07T02:25:32;16.00;99.90
2453;DHT22;63678;47.994;7.854;2023-05-07T02:28:04;15.80;99.90
2453;DHT22;63678;47.994;7.854;2023-05-07T02:30:59;15.70;99.90
2453;DHT22;63678;47.994;7.854;2023-05-07T02:33:33;16.00;99.90
2453;DHT22;63678;47.994;7.854;2023-05-07T02:36:11;15.60;99.90
2453;DHT22;63678;47.994;7.854;2023-05-07T02:38:50;16.00;99.90
2453;DHT22;63678;47.994;7.854;2023-05-07T02:41:22;16.30;99.90
2453;DHT22;63678;47.994;7.854;2023-05-07T02:43:59;16.40;99.90
2453;DHT22;63678;47.994;7.854;2023-05-07T02:46:32;15.80;99.90
2453;DHT22;63678;47.994;7.854;2023-05-07T02:49:08;16.10;99.90
2453;DHT22;63678;47.994;7.854;2023-05-07T02:51:41;16.10;99.90
2453;DHT22;63678;47.994;7.854;2023-05-07T02:54:18;16.00;99.90
2453;DHT22;63678;47.994;7.854;2023-05-07T02:56:51;15.50;99.90
2453;DHT22;63678;47.994;7.854;2023-05-07T02:59:23;15.00;99.90
2453;DHT22;63678;47.994;7.854;2023-05-07T03:01:58;15.40;99.90
2453;DHT22;63678;47.994;7.854;2023-05-07T03:04:30;15.40;99.90
2453;DHT22;63678;47.994;7.854;2023-05-07T03:07:03;14.90;99.90
2453;DHT22;63678;47.994;7.854;2023-05-07T03:12:08;15.20;99.90
2453;DHT22;63678;47.994;7.854;2023-05-07T03:14:40;15.50;99.90
2453;DHT22;63678;47.994;7.854;2023-05-07T03:19:44;14.00;99.90
2453;DHT22;63678;47.994;7.854;2023-05-07T03:22:17;13.60;99.90
2453;DHT22;63678;47.994;7.854;2023-05-07T03:24:48;13.30;99.90
2453;DHT22;63678;47.994;7.854;2023-05-07T03:27:21;13.30;99.90
2453;DHT22;63678;47.994;7.854;2023-05-07T03:32:29;13.20;99.90
2453;DHT22;63678;47.994;7.854;2023-05-07T03:35:02;13.20;99.90
2453;DHT22;63678;47.994;7.854;2023-05-07T03:37:35;13.20;99.90
2453;DHT22;63678;47.994;7.854;2023-05-07T03:40:08;13.10;99.90
2453;DHT22;63678;47.994;7.854;2023-05-07T03:42:50;13.00;99.90
2453;DHT22;63678;47.994;7.854;2023-05-07T03:45:24;13.00;99.90
2453;DHT22;63678;47.994;7.854;2023-05-07T03:50:40;13.10;99.90
2453;DHT22;63678;47.994;7.854;2023-05-07T03:53:12;13.40;99.90
2453;DHT22;63678;47.994;7.854;2023-05-07T03:55:45;14.30;99.90
2453;DHT22;63678;47.994;7.854;2023-05-07T03:58:17;14.10;99.90
2453;DHT22;63678;47.994;7.854;2023-05-07T04:00:49;14.30;99.90
2453;DHT22;63678;47.994;7.854;2023-05-07T04:03:30;14.30;99.90
2453;DHT22;63678;47.994;7.854;2023-05-07T04:06:03;14.10;99.90
2453;DHT22;63678;47.994;7.854;2023-05-07T04:08:38;14.30;99.90
2453;DHT22;63678;47.994;7.854;2023-05-07T04:11:12;14.30;99.90
2453;DHT22;63678;47.994;7.854;2023-05-07T04:16:16;14.00;99.90
2453;DHT22;63678;47.994;7.854;2023-05-07T04:18:49;14.10;99.90
2453;DHT22;63678;47.994;7.854;2023-05-07T04:21:21;14.50;99.90
2453;DHT22;63678;47.994;7.854;2023-05-07T04:23:56;14.80;99.90
2453;DHT22;63678;47.994;7.854;2023-05-07T04:29:01;14.80;99.90
2453;DHT22;63678;47.994;7.854;2023-05-07T04:31:37;15.30;99.90
2453;DHT22;63678;47.994;7.854;2023-05-07T04:34:10;14.80;99.90
2453;DHT22;63678;47.994;7.854;2023-05-07T04:36:42;14.40;99.90
2453;DHT22;63678;47.994;7.854;2023-05-07T04:39:17;14.20;99.90
2453;DHT22;63678;47.994;7.854;2023-05-07T04:41:51;14.00;99.90
2453;DHT22;63678;47.994;7.854;2023-05-07T04:44:24;13.90;99.90
2453;DHT22;63678;47.994;7.854;2023-05-07T04:46:56;13.70;99.90
2453;DHT22;63678;47.994;7.854;2023-05-07T04:49:29;13.80;99.90
2453;DHT22;63678;47.994;7.854;2023-05-07T04:52:02;13.70;99.90
2453;DHT22;63678;47.994;7.854;2023-05-07T04:57:09;13.90;99.90
2453;DHT22;63678;47.994;7.854;2023-05-07T04:59:42;14.00;99.90
2453;DHT22;63678;47.994;7.854;2023-05-07T05:02:14;14.20;99.90
2453;DHT22;63678;47.994;7.854;2023-05-07T05:04:52;14.10;99.90
2453;DHT22;63678;47.994;7.854;2023-05-07T05:07:24;14.30;99.90
2453;DHT22;63678;47.994;7.854;2023-05-07T05:09:57;14.30;99.90
2453;DHT22;63678;47.994;7.854;2023-05-07T05:12:30;14.50;99.90
2453;DHT22;63678;47.994;7.854;2023-05-07T05:15:05;14.50;99.90
2453;DHT22;63678;47.994;7.854;2023-05-07T05:17:37;14.50;99.90
2453;DHT22;63678;47.994;7.854;2023-05-07T05:20:11;14.60;99.90
2453;DHT22;63678;47.994;7.854;2023-05-07T05:22:45;14.40;99.90
2453;DHT22;63678;47.994;7.854;2023-05-07T05:25:18;14.70;99.90
2453;DHT22;63678;47.994;7.854;2023-05-07T05:27:50;14.80;99.90
2453;DHT22;63678;47.994;7.854;2023-05-07T05:30:23;14.80;99.90
2453;DHT22;63678;47.994;7.854;2023-05-07T05:32:56;14.60;99.90
2453;DHT22;63678;47.994;7.854;2023-05-07T05:35:31;14.40;99.90
2453;DHT22;63678;47.994;7.854;2023-05-07T05:38:06;14.30;99.90
2453;DHT22;63678;47.994;7.854;2023-05-07T05:40:39;15.40;99.90
2453;DHT22;63678;47.994;7.854;2023-05-07T05:43:11;14.50;99.90
2453;DHT22;63678;47.994;7.854;2023-05-07T05:45:43;14.80;99.90
2453;DHT22;63678;47.994;7.854;2023-05-07T05:48:15;15.20;99.90
2453;DHT22;63678;47.994;7.854;2023-05-07T05:50:48;15.30;99.90
2453;DHT22;63678;47.994;7.854;2023-05-07T05:53:22;15.30;99.90
2453;DHT22;63678;47.994;7.854;2023-05-07T05:55:55;15.40;99.90
2453;DHT22;63678;47.994;7.854;2023-05-07T05:58:28;15.70;99.90
2453;DHT22;63678;47.994;7.854;2023-05-07T06:01:05;15.90;99.90
2453;DHT22;63678;47.994;7.854;2023-05-07T06:03:38;16.90;99.90
2453;DHT22;63678;47.994;7.854;2023-05-07T06:08:50;17.70;99.90
2453;DHT22;63678;47.994;7.854;2023-05-07T06:11:28;18.00;99.90
2453;DHT22;63678;47.994;7.854;2023-05-07T06:14:00;18.30;99.90
2453;DHT22;63678;47.994;7.854;2023-05-07T06:16:34;18.50;99.90
2453;DHT22;63678;47.994;7.854;2023-05-07T06:19:07;18.60;99.90
2453;DHT22;63678;47.994;7.854;2023-05-07T06:21:39;18.90;99.90
2453;DHT22;63678;47.994;7.854;2023-05-07T06:24:12;19.30;99.90
2453;DHT22;63678;47.994;7.854;2023-05-07T06:26:44;19.30;99.90
2453;DHT22;63678;47.994;7.854;2023-05-07T06:31:50;19.00;99.90
2453;DHT22;63678;47.994;7.854;2023-05-07T06:34:23;19.00;99.90
2453;DHT22;63678;47.994;7.854;2023-05-07T06:36:55;19.30;99.90
2453;DHT22;63678;47.994;7.854;2023-05-07T06:39:37;19.30;99.90
2453;DHT22;63678;47.994;7.854;2023-05-07T06:42:09;19.00;99.90
2453;DHT22;63678;47.994;7.854;2023-05-07T06:44:45;19.10;99.90
2453;DHT22;63678;47.994;7.854;2023-05-07T06:47:20;19.20;99.90
2453;DHT22;63678;47.994;7.854;2023-05-07T06:49:56;19.20;99.90
2453;DHT22;63678;47.994;7.854;2023-05-07T06:52:33;19.20;99.90
2453;DHT22;63678;47.994;7.854;2023-05-07T06:55:06;19.40;99.90
2453;DHT22;63678;47.994;7.854;2023-05-07T06:57:38;19.80;99.90
2453;DHT22;63678;47.994;7.854;2023-05-07T07:00:11;20.60;99.90
2453;DHT22;63678;47.994;7.854;2023-05-07T07:02:51;21.10;99.90
2453;DHT22;63678;47.994;7.854;2023-05-07T07:05:26;21.10;99.90
2453;DHT22;63678;47.994;7.854;2023-05-07T07:08:01;20.20;99.90
2453;DHT22;63678;47.994;7.854;2023-05-07T07:10:33;19.50;99.90
2453;DHT22;63678;47.994;7.854;2023-05-07T07:13:07;19.40;99.90
2453;DHT22;63678;47.994;7.854;2023-05-07T07:15:39;18.70;99.90
2453;DHT22;63678;47.994;7.854;2023-05-07T07:18:12;18.80;99.90
2453;DHT22;63678;47.994;7.854;2023-05-07T07:20:44;19.70;99.90
2453;DHT22;63678;47.994;7.854;2023-05-07T07:23:18;21.50;99.90
2453;DHT22;63678;47.994;7.854;2023-05-07T07:25:49;22.30;99.90
2453;DHT22;63678;47.994;7.854;2023-05-07T07:28:22;23.40;99.90
2453;DHT22;63678;47.994;7.854;2023-05-07T07:30:54;23.40;99.90
2453;DHT22;63678;47.994;7.854;2023-05-07T07:33:26;23.30;99.90
2453;DHT22;63678;47.994;7.854;2023-05-07T07:36:00;22.90;99.90
2453;DHT22;63678;47.994;7.854;2023-05-07T07:38:33;22.90;99.90
2453;DHT22;63678;47.994;7.854;2023-05-07T07:41:08;22.90;99.90
2453;DHT22;63678;47.994;7.854;2023-05-07T07:43:41;23.40;99.90
2453;DHT22;63678;47.994;7.854;2023-05-07T07:46:13;23.20;99.90
2453;DHT22;63678;47.994;7.854;2023-05-07T07:48:47;23.00;99.90
2453;DHT22;63678;47.994;7.854;2023-05-07T07:51:20;24.00;99.90
2453;DHT22;63678;47.994;7.854;2023-05-07T07:53:55;23.90;99.90
2453;DHT22;63678;47.994;7.854;2023-05-07T07:56:29;24.50;99.90
2453;DHT22;63678;47.994;7.854;2023-05-07T07:59:02;24.60;99.90
2453;DHT22;63678;47.994;7.854;2023-05-07T08:01:36;24.70;99.90
2453;DHT22;63678;47.994;7.854;2023-05-07T08:04:09;25.40;99.90
2453;DHT22;63678;47.994;7.854;2023-05-07T08:06:45;25.70;99.90
2453;DHT22;63678;47.994;7.854;2023-05-07T08:09:18;25.70;99.90
2453;DHT22;63678;47.994;7.854;2023-05-07T08:11:51;26.20;99.90
2453;DHT22;63678;47.994;7.854;2023-05-07T08:14:24;27.10;99.90
2453;DHT22;63678;47.994;7.854;2023-05-07T08:16:56;26.70;99.90
2453;DHT22;63678;47.994;7.854;2023-05-07T08:19:29;25.50;99.90
2453;DHT22;63678;47.994;7.854;2023-05-07T08:22:02;25.50;99.90
2453;DHT22;63678;47.994;7.854;2023-05-07T08:24:37;26.20;99.90
2453;DHT22;63678;47.994;7.854;2023-05-07T08:27:09;26.40;99.90
2453;DHT22;63678;47.994;7.854;2023-05-07T08:29:44;24.80;99.90
2453;DHT22;63678;47.994;7.854;2023-05-07T08:32:20;24.70;99.90
2453;DHT22;63678;47.994;7.854;2023-05-07T08:34:53;23.90;99.90
2453;DHT22;63678;47.994;7.854;2023-05-07T08:37:25;23.60;99.90
2453;DHT22;63678;47.994;7.854;2023-05-07T08:39:58;23.30;99.90
2453;DHT22;63678;47.994;7.854;2023-05-07T08:42:36;23.00;99.90
2453;DHT22;63678;47.994;7.854;2023-05-07T08:45:10;23.20;99.90
2453;DHT22;63678;47.994;7.854;2023-05-07T08:47:49;23.00;99.90
2453;DHT22;63678;47.994;7.854;2023-05-07T08:50:27;23.50;99.90
2453;DHT22;63678;47.994;7.854;2023-05-07T08:52:59;23.80;99.90
2453;DHT22;63678;47.994;7.854;2023-05-07T08:55:32;24.40;99.90
2453;DHT22;63678;47.994;7.854;2023-05-07T08:58:05;24.50;99.90
2453;DHT22;63678;47.994;7.854;2023-05-07T09:00:41;26.40;99.90
2453;DHT22;63678;47.994;7.854;2023-05-07T09:03:14;26.90;99.90
2453;DHT22;63678;47.994;7.854;2023-05-07T09:05:50;26.80;99.90
2453;DHT22;63678;47.994;7.854;2023-05-07T09:08:26;27.10;99.90
2453;DHT22;63678;47.994;7.854;2023-05-07T09:11:02;26.90;99.90
2453;DHT22;63678;47.994;7.854;2023-05-07T09:13:35;26.80;99.90
2453;DHT22;63678;47.994;7.854;2023-05-07T09:16:12;27.70;99.90
2453;DHT22;63678;47.994;7.854;2023-05-07T09:18:48;27.70;99.90
2453;DHT22;63678;47.994;7.854;2023-05-07T09:21:23;26.80;99.90
2453;DHT22;63678;47.994;7.854;2023-05-07T09:23:57;26.60;99.90
2453;DHT22;63678;47.994;7.854;2023-05-07T09:26:44;26.90;99.90
2453;DHT22;63678;47.994;7.854;2023-05-07T09:29:19;25.90;99.90
2453;DHT22;63678;47.994;7.854;2023-05-07T09:34:24;25.30;99.90
2453;DHT22;63678;47.994;7.854;2023-05-07T09:36:59;24.50;99.90
2453;DHT22;63678;47.994;7.854;2023-05-07T09:39:48;23.80;99.90
2453;DHT22;63678;47.994;7.854;2023-05-07T09:42:25;24.10;99.90
2453;DHT22;63678;47.994;7.854;2023-05-07T09:47:42;25.30;99.90
2453;DHT22;63678;47.994;7.854;2023-05-07T09:50:19;24.30;99.90
2453;DHT22;63678;47.994;7.854;2023-05-07T09:52:54;23.80;99.90
2453;DHT22;63678;47.994;7.854;2023-05-07T09:55:28;23.20;99.90
2453;DHT22;63678;47.994;7.854;2023-05-07T09:58:02;22.80;99.90
2453;DHT22;63678;47.994;7.854;2023-05-07T10:00:36;22.20;99.90
2453;DHT22;63678;47.994;7.854;2023-05-07T10:03:14;21.00;99.90
2453;DHT22;63678;47.994;7.854;2023-05-07T10:05:59;20.60;99.90
2453;DHT22;63678;47.994;7.854;2023-05-07T10:11:07;20.70;99.90
2453;DHT22;63678;47.994;7.854;2023-05-07T10:13:41;20.50;99.90
2453;DHT22;63678;47.994;7.854;2023-05-07T10:16:15;19.90;99.90
2453;DHT22;63678;47.994;7.854;2023-05-07T10:18:51;19.60;99.90
2453;DHT22;63678;47.994;7.854;2023-05-07T10:21:27;19.00;99.90
2453;DHT22;63678;47.994;7.854;2023-05-07T10:24:08;18.70;99.90
2453;DHT22;63678;47.994;7.854;2023-05-07T10:26:50;18.60;99.90
2453;DHT22;63678;47.994;7.854;2023-05-07T10:32:27;17.50;99.90
2453;DHT22;63678;47.994;7.854;2023-05-07T10:35:10;17.50;99.90
2453;DHT22;63678;47.994;7.854;2023-05-07T10:40:31;17.10;99.90
2453;DHT22;63678;47.994;7.854;2023-05-07T10:43:05;17.10;99.90
2453;DHT22;63678;47.994;7.854;2023-05-07T10:46:17;17.30;99.90
2453;DHT22;63678;47.994;7.854;2023-05-07T10:51:41;17.60;99.90
2453;DHT22;63678;47.994;7.854;2023-05-07T10:54:25;18.10;99.90
2453;DHT22;63678;47.994;7.854;2023-05-07T11:06:12;19.70;99.90
2453;DHT22;63678;47.994;7.854;2023-05-07T11:08:56;20.40;99.90
2453;DHT22;63678;47.994;7.854;2023-05-07T11:11:46;20.70;99.90
2453;DHT22;63678;47.994;7.854;2023-05-07T11:14:44;20.80;99.90
2453;DHT22;63678;47.994;7.854;2023-05-07T11:17:21;21.30;99.90
2453;DHT22;63678;47.994;7.854;2023-05-07T11:20:02;22.20;99.90
2453;DHT22;63678;47.994;7.854;2023-05-07T11:25:41;22.30;99.90
2453;DHT22;63678;47.994;7.854;2023-05-07T11:28:20;22.10;99.90
2453;DHT22;63678;47.994;7.854;2023-05-07T11:31:05;21.90;99.90
2453;DHT22;63678;47.994;7.854;2023-05-07T11:33:38;22.00;99.90
2453;DHT22;63678;47.994;7.854;2023-05-07T11:36:15;22.40;99.90
2453;DHT22;63678;47.994;7.854;2023-05-07T11:41:35;22.10;99.90
2453;DHT22;63678;47.994;7.854;2023-05-07T11:44:08;22.20;99.90
2453;DHT22;63678;47.994;7.854;2023-05-07T11:46:43;21.90;99.90
2453;DHT22;63678;47.994;7.854;2023-05-07T11:49:17;22.00;99.90
2453;DHT22;63678;47.994;7.854;2023-05-07T11:56:56;21.20;99.90
2453;DHT22;63678;47.994;7.854;2023-05-07T11:59:28;20.90;99.90
2453;DHT22;63678;47.994;7.854;2023-05-07T12:04:33;20.60;99.90
2453;DHT22;63678;47.994;7.854;2023-05-07T12:09:48;20.60;99.90
2453;DHT22;63678;47.994;7.854;2023-05-07T12:14:53;20.90;99.90
2453;DHT22;63678;47.994;7.854;2023-05-07T12:17:25;21.40;99.90
2453;DHT22;63678;47.994;7.854;2023-05-07T12:19:58;21.90;99.90
2453;DHT22;63678;47.994;7.854;2023-05-07T12:22:30;22.30;99.90
2453;DHT22;63678;47.994;7.854;2023-05-07T12:25:02;22.80;99.90
2453;DHT22;63678;47.994;7.854;2023-05-07T12:27:37;22.40;99.90
2453;DHT22;63678;47.994;7.854;2023-05-07T12:30:10;22.40;99.90
2453;DHT22;63678;47.994;7.854;2023-05-07T12:32:45;22.50;99.90
2453;DHT22;63678;47.994;7.854;2023-05-07T12:37:58;22.20;99.90
2453;DHT22;63678;47.994;7.854;2023-05-07T12:40:39;21.80;99.90
2453;DHT22;63678;47.994;7.854;2023-05-07T12:43:33;21.50;99.90
2453;DHT22;63678;47.994;7.854;2023-05-07T12:46:07;21.50;99.90
2453;DHT22;63678;47.994;7.854;2023-05-07T12:48:44;21.50;99.90
2453;DHT22;63678;47.994;7.854;2023-05-07T12:51:18;21.70;99.90
2453;DHT22;63678;47.994;7.854;2023-05-07T12:53:50;21.70;99.90
2453;DHT22;63678;47.994;7.854;2023-05-07T12:56:23;21.80;99.90
2453;DHT22;63678;47.994;7.854;2023-05-07T12:58:57;21.70;99.90
2453;DHT22;63678;47.994;7.854;2023-05-07T13:01:30;21.80;99.90
2453;DHT22;63678;47.994;7.854;2023-05-07T13:04:04;21.70;99.90
2453;DHT22;63678;47.994;7.854;2023-05-07T13:06:37;21.00;99.90
2453;DHT22;63678;47.994;7.854;2023-05-07T13:09:09;21.10;99.90
2453;DHT22;63678;47.994;7.854;2023-05-07T13:11:42;21.40;99.90
2453;DHT22;63678;47.994;7.854;2023-05-07T13:16:49;21.20;99.90
2453;DHT22;63678;47.994;7.854;2023-05-07T13:19:21;21.30;99.90
2453;DHT22;63678;47.994;7.854;2023-05-07T13:21:54;21.30;99.90
2453;DHT22;63678;47.994;7.854;2023-05-07T13:24:26;21.40;99.90
2453;DHT22;63678;47.994;7.854;2023-05-07T13:26:58;21.20;99.90
2453;DHT22;63678;47.994;7.854;2023-05-07T13:29:30;21.00;99.90
2453;DHT22;63678;47.994;7.854;2023-05-07T13:32:04;20.80;99.90
2453;DHT22;63678;47.994;7.854;2023-05-07T13:34:36;20.70;99.90
2453;DHT22;63678;47.994;7.854;2023-05-07T13:37:08;20.70;99.90
2453;DHT22;63678;47.994;7.854;2023-05-07T13:39:42;20.60;99.90
2453;DHT22;63678;47.994;7.854;2023-05-07T13:44:47;20.90;99.90
2453;DHT22;63678;47.994;7.854;2023-05-07T13:47:19;21.10;99.90
2453;DHT22;63678;47.994;7.854;2023-05-07T13:49:54;21.40;99.90
2453;DHT22;63678;47.994;7.854;2023-05-07T14:00:05;21.80;99.90
2453;DHT22;63678;47.994;7.854;2023-05-07T14:02:45;21.90;99.90
2453;DHT22;63678;47.994;7.854;2023-05-07T14:07:51;21.70;99.90
2453;DHT22;63678;47.994;7.854;2023-05-07T14:10:24;21.50;99.90
2453;DHT22;63678;47.994;7.854;2023-05-07T14:18:04;21.60;99.90
2453;DHT22;63678;47.994;7.854;2023-05-07T14:20:36;21.30;99.90
2453;DHT22;63678;47.994;7.854;2023-05-07T14:28:15;21.70;99.90
2453;DHT22;63678;47.994;7.854;2023-05-07T14:30:47;21.80;99.90
2453;DHT22;63678;47.994;7.854;2023-05-07T14:33:20;21.70;99.90
2453;DHT22;63678;47.994;7.854;2023-05-07T14:35:52;21.70;99.90
2453;DHT22;63678;47.994;7.854;2023-05-07T14:40:57;21.60;99.90
2453;DHT22;63678;47.994;7.854;2023-05-07T14:43:29;21.60;99.90
2453;DHT22;63678;47.994;7.854;2023-05-07T14:46:01;21.90;99.90
2453;DHT22;63678;47.994;7.854;2023-05-07T14:48:33;22.10;99.90
2453;DHT22;63678;47.994;7.854;2023-05-07T14:51:06;22.00;99.90
2453;DHT22;63678;47.994;7.854;2023-05-07T14:53:38;22.10;99.90
2453;DHT22;63678;47.994;7.854;2023-05-07T14:56:12;22.10;99.90
2453;DHT22;63678;47.994;7.854;2023-05-07T14:58:47;22.20;99.90
2453;DHT22;63678;47.994;7.854;2023-05-07T15:01:21;20.60;99.90
2453;DHT22;63678;47.994;7.854;2023-05-07T15:03:53;22.30;99.90
2453;DHT22;63678;47.994;7.854;2023-05-07T15:06:26;22.30;99.90
2453;DHT22;63678;47.994;7.854;2023-05-07T15:08:58;22.50;99.90
2453;DHT22;63678;47.994;7.854;2023-05-07T15:11:31;22.50;99.90
2453;DHT22;63678;47.994;7.854;2023-05-07T15:14:03;22.10;99.90
2453;DHT22;63678;47.994;7.854;2023-05-07T15:16:36;21.80;99.90
2453;DHT22;63678;47.994;7.854;2023-05-07T15:19:08;21.70;99.90
2453;DHT22;63678;47.994;7.854;2023-05-07T15:21:41;21.60;99.90
2453;DHT22;63678;47.994;7.854;2023-05-07T15:24:13;21.40;99.90
2453;DHT22;63678;47.994;7.854;2023-05-07T15:29:18;21.50;99.90
2453;DHT22;63678;47.994;7.854;2023-05-07T15:31:51;21.50;99.90
2453;DHT22;63678;47.994;7.854;2023-05-07T15:34:23;21.50;99.90
2453;DHT22;63678;47.994;7.854;2023-05-07T15:36:56;21.50;99.90
2453;DHT22;63678;47.994;7.854;2023-05-07T15:39:31;21.60;99.90
2453;DHT22;63678;47.994;7.854;2023-05-07T15:42:03;21.70;99.90
2453;DHT22;63678;47.994;7.854;2023-05-07T15:44:35;21.50;99.90
2453;DHT22;63678;47.994;7.854;2023-05-07T15:47:07;21.50;99.90
2453;DHT22;63678;47.994;7.854;2023-05-07T15:49:41;21.50;99.90
2453;DHT22;63678;47.994;7.854;2023-05-07T15:52:13;21.60;99.90
2453;DHT22;63678;47.994;7.854;2023-05-07T15:57:19;21.40;99.90
2453;DHT22;63678;47.994;7.854;2023-05-07T15:59:52;21.50;99.90
2453;DHT22;63678;47.994;7.854;2023-05-07T16:04:57;21.40;99.90
2453;DHT22;63678;47.994;7.854;2023-05-07T16:07:30;21.30;99.90
2453;DHT22;63678;47.994;7.854;2023-05-07T16:10:03;21.30;99.90
2453;DHT22;63678;47.994;7.854;2023-05-07T16:12:36;21.30;99.90
2453;DHT22;63678;47.994;7.854;2023-05-07T16:15:09;21.20;99.90
2453;DHT22;63678;47.994;7.854;2023-05-07T16:17:45;21.10;99.90
2453;DHT22;63678;47.994;7.854;2023-05-07T16:20:19;21.10;99.90
2453;DHT22;63678;47.994;7.854;2023-05-07T16:22:52;21.10;99.90
2453;DHT22;63678;47.994;7.854;2023-05-07T16:25:24;20.90;99.90
2453;DHT22;63678;47.994;7.854;2023-05-07T16:27:57;21.00;99.90
2453;DHT22;63678;47.994;7.854;2023-05-07T16:38:07;20.90;99.90
2453;DHT22;63678;47.994;7.854;2023-05-07T16:40:42;20.90;99.90
2453;DHT22;63678;47.994;7.854;2023-05-07T16:43:15;20.90;99.90
2453;DHT22;63678;47.994;7.854;2023-05-07T16:45:47;21.10;99.90
2453;DHT22;63678;47.994;7.854;2023-05-07T16:48:19;21.10;99.90
2453;DHT22;63678;47.994;7.854;2023-05-07T16:50:52;21.10;99.90
2453;DHT22;63678;47.994;7.854;2023-05-07T16:55:57;21.10;99.90
2453;DHT22;63678;47.994;7.854;2023-05-07T16:58:29;21.10;99.90
2453;DHT22;63678;47.994;7.854;2023-05-07T17:03:34;20.90;99.90
2453;DHT22;63678;47.994;7.854;2023-05-07T17:06:07;20.90;99.90
2453;DHT22;63678;47.994;7.854;2023-05-07T17:08:44;20.90;99.90
2453;DHT22;63678;47.994;7.854;2023-05-07T17:11:17;20.90;99.90
2453;DHT22;63678;47.994;7.854;2023-05-07T17:13:49;20.90;99.90
2453;DHT22;63678;47.994;7.854;2023-05-07T17:16:22;20.80;99.90
2453;DHT22;63678;47.994;7.854;2023-05-07T17:18:55;20.70;99.90
2453;DHT22;63678;47.994;7.854;2023-05-07T17:21:27;20.70;99.90
2453;DHT22;63678;47.994;7.854;2023-05-07T17:26:32;20.70;99.90
2453;DHT22;63678;47.994;7.854;2023-05-07T17:29:07;20.50;99.90
2453;DHT22;63678;47.994;7.854;2023-05-07T17:31:40;20.40;99.90
2453;DHT22;63678;47.994;7.854;2023-05-07T17:34:13;20.40;99.90
2453;DHT22;63678;47.994;7.854;2023-05-07T17:36:46;20.30;99.90
2453;DHT22;63678;47.994;7.854;2023-05-07T17:39:18;20.30;99.90
2453;DHT22;63678;47.994;7.854;2023-05-07T17:41:51;20.20;99.90
2453;DHT22;63678;47.994;7.854;2023-05-07T17:46:56;20.10;99.90
2453;DHT22;63678;47.994;7.854;2023-05-07T17:49:30;20.10;99.90
2453;DHT22;63678;47.994;7.854;2023-05-07T18:02:13;19.80;99.90
2453;DHT22;63678;47.994;7.854;2023-05-07T18:04:45;19.70;99.90
2453;DHT22;63678;47.994;7.854;2023-05-07T18:09:50;19.70;99.90
2453;DHT22;63678;47.994;7.854;2023-05-07T18:12:22;19.60;99.90
2453;DHT22;63678;47.994;7.854;2023-05-07T18:14:58;19.50;99.90
2453;DHT22;63678;47.994;7.854;2023-05-07T18:17:30;19.50;99.90
2453;DHT22;63678;47.994;7.854;2023-05-07T18:20:03;19.50;99.90
2453;DHT22;63678;47.994;7.854;2023-05-07T18:22:42;19.50;99.90
2453;DHT22;63678;47.994;7.854;2023-05-07T18:27:47;19.60;99.90
2453;DHT22;63678;47.994;7.854;2023-05-07T18:32:53;19.50;99.90
2453;DHT22;63678;47.994;7.854;2023-05-07T18:35:25;19.40;99.90
2453;DHT22;63678;47.994;7.854;2023-05-07T18:37:57;19.40;99.90
2453;DHT22;63678;47.994;7.854;2023-05-07T18:40:29;19.20;99.90
2453;DHT22;63678;47.994;7.854;2023-05-07T18:43:02;19.20;99.90
2453;DHT22;63678;47.994;7.854;2023-05-07T18:45:38;19.10;99.90
2453;DHT22;63678;47.994;7.854;2023-05-07T18:48:10;19.00;99.90
2453;DHT22;63678;47.994;7.854;2023-05-07T18:50:42;18.80;99.90
2453;DHT22;63678;47.994;7.854;2023-05-07T18:53:15;18.70;99.90
2453;DHT22;63678;47.994;7.854;2023-05-07T18:55:51;18.40;99.90
2453;DHT22;63678;47.994;7.854;2023-05-07T19:00:56;18.10;99.90
2453;DHT22;63678;47.994;7.854;2023-05-07T19:06:01;17.80;99.90
2453;DHT22;63678;47.994;7.854;2023-05-07T19:08:34;17.70;99.90